createdAt,value
2022-12-02T00:01:43.928Z,89.13
2022-12-02T00:05:55.092Z,80.72
2022-12-02T00:10:01.859Z,83.65
2022-12-02T00:14:22.009Z,74.40
2022-12-02T00:18:29.448Z,82.25
2022-12-02T00:22:36.105Z,67.22
2022-12-02T00:26:44.609Z,63.65
2022-12-02T00:30:51.324Z,60.40
2022-12-02T00:34:57.996Z,67.32
2022-12-02T00:39:04.663Z,58.88
2022-12-02T00:43:30.506Z,64.97
2022-12-02T00:47:37.187Z,59.13
2022-12-02T00:51:45.130Z,58.97
2022-12-02T00:55:51.784Z,64.38
2022-12-02T00:59:58.442Z,57.00
2022-12-02T01:04:05.638Z,54.92
2022-12-02T01:08:12.360Z,51.55
2022-12-02T01:12:19.120Z,58.30
2022-12-02T01:16:25.863Z,57.60
2022-12-02T01:20:32.616Z,49.50
2022-12-02T01:24:39.271Z,54.20
2022-12-02T01:28:46.119Z,54.28
2022-12-02T01:32:52.845Z,58.85
2022-12-02T01:36:59.512Z,67.85
2022-12-02T01:41:07.184Z,62.80
2022-12-02T01:45:14.109Z,60.53
2022-12-02T01:49:21.578Z,63.00
2022-12-02T01:53:28.507Z,60.58
2022-12-02T01:57:35.197Z,57.80
2022-12-02T02:01:42.266Z,53.95
2022-12-02T02:05:50.657Z,48.97
2022-12-02T02:09:58.317Z,53.60
2022-12-02T02:14:06.995Z,51.50
2022-12-02T02:18:16.117Z,59.33
2022-12-02T02:22:31.387Z,46.80
2022-12-02T02:26:38.133Z,55.40
2022-12-02T02:30:45.179Z,48.88
2022-12-02T02:34:52.142Z,49.35
2022-12-02T02:38:59.136Z,45.35
2022-12-02T02:43:06.379Z,40.60
2022-12-02T02:47:13.141Z,50.05
2022-12-02T02:51:20.113Z,42.80
2022-12-02T02:55:27.737Z,41.05
2022-12-02T02:59:34.508Z,39.83
2022-12-02T03:03:48.873Z,40.63
2022-12-02T03:07:55.641Z,36.33
2022-12-02T03:12:02.826Z,34.80
2022-12-02T03:16:12.348Z,35.65
2022-12-02T03:20:19.667Z,33.58
2022-12-02T03:24:26.449Z,35.70
2022-12-02T03:28:34.115Z,31.88
2022-12-02T03:32:40.888Z,34.90
2022-12-02T03:36:47.674Z,29.85
2022-12-02T03:40:54.722Z,35.63
2022-12-02T03:45:01.852Z,35.63
2022-12-02T03:49:09.191Z,35.45
2022-12-02T03:53:16.001Z,30.65
2022-12-02T03:57:23.199Z,26.95
2022-12-02T04:01:29.956Z,28.83
2022-12-02T04:05:36.686Z,28.88
2022-12-02T04:09:43.387Z,29.50
2022-12-02T04:13:50.080Z,35.08
2022-12-02T04:17:56.834Z,38.55
2022-12-02T04:22:03.499Z,35.08
2022-12-02T04:26:10.172Z,35.22
2022-12-02T04:30:16.967Z,34.73
2022-12-02T04:34:23.638Z,41.42
2022-12-02T04:38:30.330Z,40.27
2022-12-02T04:42:37.003Z,39.50
2022-12-02T04:46:44.123Z,38.80
2022-12-02T04:50:50.834Z,38.17
2022-12-02T04:54:57.558Z,37.87
2022-12-02T04:59:04.312Z,42.80
2022-12-02T05:03:11.042Z,41.43
2022-12-02T05:07:17.713Z,38.78
2022-12-02T05:11:24.374Z,41.33
2022-12-02T05:15:31.090Z,48.43
2022-12-02T05:19:37.748Z,50.37
2022-12-02T05:23:44.426Z,44.03
2022-12-02T05:27:51.080Z,40.00
2022-12-02T05:31:57.820Z,43.80
2022-12-02T05:36:04.891Z,42.97
2022-12-02T05:40:11.775Z,46.93
2022-12-02T05:44:25.705Z,45.87
2022-12-02T05:48:34.878Z,47.93
2022-12-02T05:52:43.710Z,45.03
2022-12-02T05:56:50.448Z,43.47
2022-12-02T06:00:59.151Z,46.10
2022-12-02T06:05:38.363Z,49.53
2022-12-02T06:09:45.586Z,40.00
2022-12-02T06:13:52.334Z,45.07
2022-12-02T06:17:59.028Z,38.53
2022-12-02T06:22:16.175Z,38.90
2022-12-02T06:26:23.139Z,39.10
2022-12-02T06:30:29.833Z,35.97
2022-12-02T06:34:43.292Z,37.73
2022-12-02T06:39:20.271Z,37.13
2022-12-02T06:43:30.792Z,39.20
2022-12-02T06:47:37.464Z,35.87
2022-12-02T06:51:44.147Z,44.30
2022-12-02T06:56:04.496Z,38.13
2022-12-02T07:00:12.229Z,37.67
2022-12-02T07:04:30.327Z,39.87
2022-12-02T07:08:36.999Z,40.47
2022-12-02T07:12:45.650Z,40.67
2022-12-02T07:16:54.663Z,43.37
2022-12-02T07:21:01.382Z,46.60
2022-12-02T07:25:08.134Z,43.17
2022-12-02T07:29:20.725Z,47.37
2022-12-02T07:33:27.400Z,44.13
2022-12-02T07:37:34.079Z,47.20
2022-12-02T07:41:40.735Z,45.50
2022-12-02T07:45:47.445Z,49.93
2022-12-02T07:49:54.192Z,54.03
2022-12-02T07:54:01.225Z,55.87
2022-12-02T07:58:07.982Z,52.37
2022-12-02T08:02:14.689Z,48.43
2022-12-02T08:06:21.400Z,67.30
2022-12-02T08:10:28.078Z,48.70
2022-12-02T08:14:34.743Z,64.80
2022-12-02T08:18:41.427Z,56.40
2022-12-02T08:22:48.079Z,62.97
2022-12-02T08:26:54.727Z,61.50
2022-12-02T08:31:01.846Z,57.63
2022-12-02T08:35:09.054Z,59.37
2022-12-02T08:39:15.935Z,54.80
2022-12-02T08:43:22.755Z,61.70
2022-12-02T08:47:29.415Z,55.93
2022-12-02T08:51:36.650Z,52.50
2022-12-02T08:55:43.534Z,61.13
2022-12-02T08:59:50.272Z,49.63
2022-12-02T09:03:56.924Z,61.70
2022-12-02T09:08:04.303Z,61.65
2022-12-02T09:12:10.986Z,60.43
2022-12-02T09:16:17.716Z,58.33
2022-12-02T09:20:24.488Z,54.50
2022-12-02T09:24:31.192Z,68.97
2022-12-02T09:28:37.831Z,57.53
2022-12-02T09:32:44.542Z,56.20
2022-12-02T09:36:51.226Z,55.70
2022-12-02T09:41:01.927Z,56.00
2022-12-02T09:45:08.905Z,54.50
2022-12-02T09:49:15.588Z,58.37
2022-12-02T09:53:26.060Z,53.17
2022-12-02T09:57:38.752Z,59.13
2022-12-02T10:01:48.721Z,56.37
2022-12-02T10:05:56.368Z,60.97
2022-12-02T10:10:03.449Z,53.37
2022-12-02T10:14:14.374Z,57.57
2022-12-02T10:18:25.661Z,50.87
2022-12-02T10:22:32.316Z,58.43
2022-12-02T10:26:50.947Z,65.60
2022-12-02T10:31:07.975Z,54.33
2022-12-02T10:35:14.686Z,54.20
2022-12-02T10:39:23.274Z,58.87
2022-12-02T10:43:29.922Z,51.80
2022-12-02T10:47:36.804Z,49.60
2022-12-02T10:51:43.518Z,56.63
2022-12-02T10:55:50.184Z,64.03
2022-12-02T10:59:59.546Z,61.77
2022-12-02T11:04:08.855Z,60.73
2022-12-02T11:08:28.786Z,66.63
2022-12-02T11:13:00.191Z,54.77
2022-12-02T11:17:09.943Z,52.80
2022-12-02T11:21:28.590Z,54.70
2022-12-02T11:25:44.474Z,50.23
2022-12-02T11:30:07.099Z,51.40
2022-12-02T11:35:08.588Z,49.90
2022-12-02T11:39:09.003Z,54.83
2022-12-02T11:43:44.485Z,51.13
2022-12-02T11:47:54.119Z,52.60
2022-12-02T11:52:14.379Z,49.53
2022-12-02T11:56:21.262Z,42.37
2022-12-02T12:00:37.975Z,47.43
2022-12-02T12:04:46.675Z,28.03
2022-12-02T12:08:56.694Z,30.47
2022-12-02T12:13:15.108Z,28.97
2022-12-02T12:17:42.464Z,25.93
2022-12-02T12:21:52.491Z,25.37
2022-12-02T12:25:59.383Z,28.23
2022-12-02T12:30:06.696Z,30.57
2022-12-02T12:34:16.550Z,25.13
2022-12-02T12:38:30.217Z,27.83
2022-12-02T12:42:37.447Z,37.47
2022-12-02T12:46:44.283Z,25.60
2022-12-02T12:50:50.934Z,21.33
2022-12-02T12:54:57.702Z,26.67
2022-12-02T12:59:04.348Z,26.47
2022-12-02T13:03:11.110Z,24.83
2022-12-02T13:07:17.947Z,25.13
2022-12-02T13:11:24.616Z,29.30
2022-12-02T13:15:31.446Z,27.67
2022-12-02T13:19:38.110Z,27.73
2022-12-02T13:23:44.810Z,36.80
2022-12-02T13:27:51.997Z,76.93
2022-12-02T13:31:58.775Z,34.13
2022-12-02T13:36:05.731Z,37.80
2022-12-02T13:40:15.267Z,45.00
2022-12-02T13:44:21.908Z,33.47
2022-12-02T13:48:28.605Z,39.17
2022-12-02T13:52:35.415Z,47.07
2022-12-02T13:56:42.085Z,49.00
2022-12-02T14:00:48.752Z,50.23
2022-12-02T14:04:55.438Z,47.07
2022-12-02T14:09:02.148Z,46.00
2022-12-02T14:13:16.000Z,49.03
2022-12-02T14:17:26.549Z,60.33
2022-12-02T14:21:33.207Z,62.97
2022-12-02T14:25:39.997Z,65.83
2022-12-02T14:29:46.653Z,60.73
2022-12-02T14:38:20.084Z,68.33
2022-12-02T14:42:26.732Z,77.27
2022-12-02T14:46:33.525Z,69.03
2022-12-02T14:50:40.488Z,88.40
2022-12-02T14:54:47.197Z,80.67
2022-12-02T14:58:53.842Z,78.23
2022-12-02T15:03:00.526Z,86.07
2022-12-02T15:07:07.299Z,79.97
2022-12-02T15:11:13.964Z,80.83
2022-12-02T15:15:38.845Z,82.60
2022-12-02T15:19:47.081Z,79.17
2022-12-02T15:23:53.750Z,80.23
2022-12-02T15:28:00.419Z,73.53
2022-12-02T15:32:07.101Z,70.07
2022-12-02T15:36:14.356Z,71.77
2022-12-02T15:40:21.320Z,72.13
2022-12-02T15:44:28.914Z,67.60
2022-12-02T15:48:35.579Z,63.37
2022-12-02T15:52:42.211Z,59.90
2022-12-02T15:56:54.167Z,62.27
2022-12-02T16:01:01.330Z,53.00
2022-12-02T16:05:08.196Z,51.37
2022-12-02T16:09:14.922Z,57.90
2022-12-02T16:13:21.642Z,55.23
2022-12-02T16:17:28.315Z,48.87
2022-12-02T16:21:34.994Z,51.00
2022-12-02T16:25:42.767Z,50.23
2022-12-02T16:29:49.419Z,60.67
2022-12-02T16:33:56.114Z,53.43
2022-12-02T16:38:04.817Z,55.90
2022-12-02T16:42:11.799Z,56.53
2022-12-02T16:46:19.135Z,56.40
2022-12-02T16:50:25.893Z,56.60
2022-12-02T16:54:32.551Z,52.27
2022-12-02T16:58:39.197Z,57.13
2022-12-02T17:02:45.999Z,53.87
2022-12-02T17:06:52.677Z,53.13
2022-12-02T17:10:59.307Z,56.03
2022-12-02T17:15:06.591Z,62.10
2022-12-02T17:19:13.252Z,55.57
2022-12-02T17:23:19.890Z,49.70
2022-12-02T17:27:26.536Z,46.53
2022-12-02T17:31:33.277Z,44.90
2022-12-02T17:35:39.996Z,44.30
2022-12-02T17:39:46.657Z,46.37
2022-12-02T17:43:53.712Z,45.97
2022-12-02T17:48:00.387Z,54.60
2022-12-02T17:52:19.623Z,53.57
2022-12-02T17:56:27.049Z,45.57
2022-12-02T18:00:33.760Z,44.97
2022-12-02T18:04:44.719Z,48.87
2022-12-02T18:08:51.596Z,45.37
2022-12-02T18:12:58.244Z,49.63
2022-12-02T18:17:04.962Z,49.33
2022-12-02T18:21:11.660Z,40.97
2022-12-02T18:25:18.315Z,41.13
2022-12-02T18:29:24.966Z,44.43
2022-12-02T18:33:31.637Z,44.60
2022-12-02T18:37:38.479Z,36.97
2022-12-02T18:41:45.166Z,40.60
2022-12-02T18:45:53.067Z,36.50
2022-12-02T18:49:59.791Z,37.93
2022-12-02T18:54:06.599Z,27.07
2022-12-02T18:58:13.289Z,33.37
2022-12-02T19:02:20.060Z,25.87
2022-12-02T19:06:26.906Z,22.97
2022-12-02T19:10:33.554Z,20.13
2022-12-02T19:14:40.202Z,20.20
2022-12-02T19:18:46.850Z,19.13
2022-12-02T19:22:53.489Z,19.63
2022-12-02T19:27:00.170Z,15.50
2022-12-02T19:31:06.964Z,18.87
2022-12-02T19:35:13.812Z,16.57
2022-12-02T19:39:20.484Z,21.53
2022-12-02T19:43:30.983Z,20.97
2022-12-02T19:47:40.817Z,21.77
2022-12-02T19:51:47.489Z,24.43
2022-12-02T19:55:54.137Z,23.77
2022-12-02T20:00:00.872Z,23.63
2022-12-02T20:04:33.496Z,24.83
2022-12-02T20:08:34.582Z,21.57
2022-12-02T20:12:41.252Z,23.00
2022-12-02T20:16:48.039Z,26.77
2022-12-02T20:20:56.150Z,22.43
2022-12-02T20:25:03.048Z,22.83
2022-12-02T20:29:09.793Z,24.53
2022-12-02T20:33:16.523Z,26.67
2022-12-02T20:37:23.383Z,25.13
2022-12-02T20:41:30.043Z,27.03
2022-12-02T20:45:36.716Z,22.93
2022-12-02T20:49:43.370Z,26.63
2022-12-02T20:53:50.732Z,25.20
2022-12-02T20:57:57.400Z,31.87
2022-12-02T21:02:04.970Z,27.07
2022-12-02T21:06:11.706Z,25.90
2022-12-02T21:10:18.929Z,25.53
2022-12-02T21:14:25.599Z,26.30
2022-12-02T21:18:36.566Z,25.53
2022-12-02T21:22:46.452Z,22.00
2022-12-02T21:26:53.129Z,26.57
2022-12-02T21:30:59.869Z,21.23
2022-12-02T21:35:09.892Z,24.80
2022-12-02T21:39:16.970Z,24.10
2022-12-02T21:43:23.636Z,25.90
2022-12-02T21:47:30.418Z,27.60
2022-12-02T21:51:37.072Z,24.07
2022-12-02T21:55:43.709Z,25.47
2022-12-02T21:59:50.452Z,26.70
2022-12-02T22:03:57.335Z,25.67
2022-12-02T22:08:04.220Z,20.50
2022-12-02T22:12:11.119Z,26.57
2022-12-02T22:16:17.884Z,23.60
2022-12-02T22:20:24.589Z,27.37
2022-12-02T22:24:31.252Z,27.27
2022-12-02T22:28:37.998Z,22.27
2022-12-02T22:32:44.984Z,24.33
2022-12-02T22:36:51.647Z,25.97
2022-12-02T22:40:58.299Z,31.33
2022-12-02T22:45:05.502Z,23.77
2022-12-02T22:49:12.199Z,23.87
2022-12-02T22:53:18.880Z,30.43
2022-12-02T22:57:25.570Z,25.57
2022-12-02T23:01:33.770Z,29.40
2022-12-02T23:05:40.500Z,27.33
2022-12-02T23:09:47.160Z,26.33
2022-12-02T23:13:53.822Z,26.50
2022-12-02T23:18:00.897Z,30.27
2022-12-02T23:22:07.546Z,28.03
2022-12-02T23:26:14.299Z,29.57
2022-12-02T23:30:26.777Z,28.13
2022-12-02T23:34:35.046Z,31.47
2022-12-02T23:38:41.686Z,29.00
2022-12-02T23:42:48.373Z,29.87
2022-12-02T23:46:55.050Z,31.90
2022-12-02T23:51:01.734Z,34.30
2022-12-02T23:55:10.441Z,33.23
2022-12-02T23:59:17.086Z,31.60
